sensor_id;sensor_type;location;lat;lon;timestamp;P1;durP1;ratioP1;P2;durP2;ratioP2
49310;SDS011;35177;45.900;5.946;2022-09-14T00:00:28;3.95;;;3.50;;
49310;SDS011;35177;45.900;5.946;2022-09-14T00:02:54;4.25;;;3.63;;
49310;SDS011;35177;45.900;5.946;2022-09-14T00:05:19;9.02;;;4.10;;
49310;SDS011;35177;45.900;5.946;2022-09-14T00:07:45;9.20;;;4.18;;
49310;SDS011;35177;45.900;5.946;2022-09-14T00:10:11;5.97;;;4.38;;
49310;SDS011;35177;45.900;5.946;2022-09-14T00:12:36;9.45;;;4.30;;
49310;SDS011;35177;45.900;5.946;2022-09-14T00:15:02;6.43;;;4.47;;
49310;SDS011;35177;45.900;5.946;2022-09-14T00:17:29;6.38;;;4.65;;
49310;SDS011;35177;45.900;5.946;2022-09-14T00:19:54;8.07;;;4.70;;
49310;SDS011;35177;45.900;5.946;2022-09-14T00:22:20;9.02;;;5.05;;
49310;SDS011;35177;45.900;5.946;2022-09-14T00:24:45;6.75;;;5.03;;
49310;SDS011;35177;45.900;5.946;2022-09-14T00:27:11;6.13;;;4.47;;
49310;SDS011;35177;45.900;5.946;2022-09-14T00:29:36;5.35;;;4.85;;
49310;SDS011;35177;45.900;5.946;2022-09-14T00:32:02;5.35;;;4.85;;
49310;SDS011;35177;45.900;5.946;2022-09-14T00:34:27;6.00;;;4.53;;
49310;SDS011;35177;45.900;5.946;2022-09-14T00:36:53;8.18;;;4.75;;
49310;SDS011;35177;45.900;5.946;2022-09-14T00:39:20;6.45;;;4.22;;
49310;SDS011;35177;45.900;5.946;2022-09-14T00:41:48;15.15;;;4.55;;
49310;SDS011;35177;45.900;5.946;2022-09-14T00:46:44;5.82;;;4.95;;
49310;SDS011;35177;45.900;5.946;2022-09-14T00:49:13;10.15;;;5.32;;
49310;SDS011;35177;45.900;5.946;2022-09-14T00:51:44;7.18;;;5.15;;
49310;SDS011;35177;45.900;5.946;2022-09-14T00:54:13;7.20;;;4.88;;
49310;SDS011;35177;45.900;5.946;2022-09-14T00:56:39;7.10;;;5.03;;
49310;SDS011;35177;45.900;5.946;2022-09-14T00:59:10;10.75;;;5.40;;
49310;SDS011;35177;45.900;5.946;2022-09-14T01:01:42;8.23;;;4.68;;
49310;SDS011;35177;45.900;5.946;2022-09-14T01:04:08;5.93;;;4.57;;
49310;SDS011;35177;45.900;5.946;2022-09-14T01:15:11;4.78;;;4.18;;
49310;SDS011;35177;45.900;5.946;2022-09-14T01:17:42;8.98;;;4.88;;
49310;SDS011;35177;45.900;5.946;2022-09-14T01:27:59;9.30;;;6.20;;
49310;SDS011;35177;45.900;5.946;2022-09-14T01:30:27;11.35;;;6.50;;
49310;SDS011;35177;45.900;5.946;2022-09-14T01:33:02;10.02;;;6.68;;
49310;SDS011;35177;45.900;5.946;2022-09-14T01:35:46;6.38;;;5.68;;
49310;SDS011;35177;45.900;5.946;2022-09-14T01:38:22;7.53;;;5.47;;
49310;SDS011;35177;45.900;5.946;2022-09-14T01:40:54;7.43;;;5.70;;
49310;SDS011;35177;45.900;5.946;2022-09-14T01:43:32;7.97;;;5.50;;
49310;SDS011;35177;45.900;5.946;2022-09-14T01:46:01;10.85;;;6.80;;
49310;SDS011;35177;45.900;5.946;2022-09-14T01:48:36;11.73;;;5.93;;
49310;SDS011;35177;45.900;5.946;2022-09-14T01:51:08;10.73;;;6.38;;
49310;SDS011;35177;45.900;5.946;2022-09-14T01:53:46;10.68;;;6.20;;
49310;SDS011;35177;45.900;5.946;2022-09-14T01:56:18;8.20;;;5.90;;
49310;SDS011;35177;45.900;5.946;2022-09-14T02:01:24;8.90;;;6.00;;
49310;SDS011;35177;45.900;5.946;2022-09-14T02:03:57;9.30;;;6.53;;
49310;SDS011;35177;45.900;5.946;2022-09-14T02:06:29;7.53;;;6.40;;
49310;SDS011;35177;45.900;5.946;2022-09-14T02:08:59;8.27;;;6.60;;
49310;SDS011;35177;45.900;5.946;2022-09-14T02:11:25;10.43;;;6.53;;
49310;SDS011;35177;45.900;5.946;2022-09-14T02:13:51;8.40;;;6.80;;
49310;SDS011;35177;45.900;5.946;2022-09-14T02:16:17;8.93;;;6.13;;
49310;SDS011;35177;45.900;5.946;2022-09-14T02:18:43;6.65;;;6.05;;
49310;SDS011;35177;45.900;5.946;2022-09-14T02:21:16;11.63;;;6.60;;
49310;SDS011;35177;45.900;5.946;2022-09-14T02:23:45;11.88;;;5.88;;
49310;SDS011;35177;45.900;5.946;2022-09-14T02:26:13;6.88;;;5.65;;
49310;SDS011;35177;45.900;5.946;2022-09-14T02:28:40;5.75;;;4.85;;
49310;SDS011;35177;45.900;5.946;2022-09-14T02:31:09;12.27;;;5.82;;
49310;SDS011;35177;45.900;5.946;2022-09-14T02:36:41;8.00;;;5.10;;
49310;SDS011;35177;45.900;5.946;2022-09-14T02:50:46;9.75;;;5.60;;
49310;SDS011;35177;45.900;5.946;2022-09-14T02:53:18;6.60;;;5.78;;
49310;SDS011;35177;45.900;5.946;2022-09-14T02:55:45;11.00;;;5.85;;
49310;SDS011;35177;45.900;5.946;2022-09-14T02:58:15;8.40;;;5.30;;
49310;SDS011;35177;45.900;5.946;2022-09-14T03:00:42;8.55;;;5.45;;
49310;SDS011;35177;45.900;5.946;2022-09-14T03:03:11;8.15;;;5.05;;
49310;SDS011;35177;45.900;5.946;2022-09-14T03:05:38;7.75;;;5.30;;
49310;SDS011;35177;45.900;5.946;2022-09-14T03:08:04;9.73;;;5.97;;
49310;SDS011;35177;45.900;5.946;2022-09-14T03:10:30;7.35;;;5.13;;
49310;SDS011;35177;45.900;5.946;2022-09-14T03:12:56;9.00;;;5.38;;
49310;SDS011;35177;45.900;5.946;2022-09-14T03:15:22;8.13;;;5.85;;
49310;SDS011;35177;45.900;5.946;2022-09-14T03:17:49;10.05;;;6.88;;
49310;SDS011;35177;45.900;5.946;2022-09-14T03:20:19;10.55;;;6.05;;
49310;SDS011;35177;45.900;5.946;2022-09-14T03:22:47;8.80;;;5.00;;
49310;SDS011;35177;45.900;5.946;2022-09-14T03:25:12;10.55;;;5.00;;
49310;SDS011;35177;45.900;5.946;2022-09-14T03:27:38;8.35;;;4.15;;
49310;SDS011;35177;45.900;5.946;2022-09-14T03:30:05;7.82;;;5.82;;
49310;SDS011;35177;45.900;5.946;2022-09-14T03:32:31;16.33;;;7.45;;
49310;SDS011;35177;45.900;5.946;2022-09-14T03:34:56;10.52;;;7.38;;
49310;SDS011;35177;45.900;5.946;2022-09-14T03:37:23;9.18;;;6.75;;
49310;SDS011;35177;45.900;5.946;2022-09-14T03:39:49;10.35;;;7.07;;
49310;SDS011;35177;45.900;5.946;2022-09-14T03:42:14;7.82;;;5.55;;
49310;SDS011;35177;45.900;5.946;2022-09-14T03:44:40;10.00;;;5.57;;
49310;SDS011;35177;45.900;5.946;2022-09-14T03:47:05;6.25;;;5.30;;
49310;SDS011;35177;45.900;5.946;2022-09-14T03:49:32;7.07;;;6.32;;
49310;SDS011;35177;45.900;5.946;2022-09-14T03:51:58;9.90;;;5.85;;
49310;SDS011;35177;45.900;5.946;2022-09-14T03:54:25;9.45;;;5.90;;
49310;SDS011;35177;45.900;5.946;2022-09-14T03:56:51;9.27;;;6.32;;
49310;SDS011;35177;45.900;5.946;2022-09-14T03:59:17;11.07;;;5.93;;
49310;SDS011;35177;45.900;5.946;2022-09-14T04:01:44;12.98;;;6.07;;
49310;SDS011;35177;45.900;5.946;2022-09-14T04:04:09;7.82;;;6.35;;
49310;SDS011;35177;45.900;5.946;2022-09-14T04:06:35;13.18;;;6.78;;
49310;SDS011;35177;45.900;5.946;2022-09-14T04:09:01;10.93;;;7.13;;
49310;SDS011;35177;45.900;5.946;2022-09-14T04:11:26;7.60;;;6.45;;
49310;SDS011;35177;45.900;5.946;2022-09-14T04:13:53;10.15;;;6.07;;
49310;SDS011;35177;45.900;5.946;2022-09-14T04:16:19;9.43;;;6.25;;
49310;SDS011;35177;45.900;5.946;2022-09-14T04:18:45;14.20;;;6.32;;
49310;SDS011;35177;45.900;5.946;2022-09-14T04:21:12;9.35;;;5.63;;
49310;SDS011;35177;45.900;5.946;2022-09-14T04:23:43;12.18;;;6.05;;
49310;SDS011;35177;45.900;5.946;2022-09-14T04:26:09;9.57;;;6.13;;
49310;SDS011;35177;45.900;5.946;2022-09-14T04:28:36;7.32;;;5.05;;
49310;SDS011;35177;45.900;5.946;2022-09-14T04:31:02;7.88;;;4.97;;
49310;SDS011;35177;45.900;5.946;2022-09-14T04:33:31;7.43;;;5.03;;
49310;SDS011;35177;45.900;5.946;2022-09-14T04:36:08;8.63;;;5.38;;
49310;SDS011;35177;45.900;5.946;2022-09-14T04:38:36;11.75;;;5.10;;
49310;SDS011;35177;45.900;5.946;2022-09-14T04:41:09;7.75;;;5.53;;
49310;SDS011;35177;45.900;5.946;2022-09-14T04:43:37;8.48;;;5.80;;
49310;SDS011;35177;45.900;5.946;2022-09-14T04:46:05;7.80;;;5.43;;
49310;SDS011;35177;45.900;5.946;2022-09-14T04:48:33;5.90;;;4.55;;
49310;SDS011;35177;45.900;5.946;2022-09-14T04:51:03;6.63;;;4.18;;
49310;SDS011;35177;45.900;5.946;2022-09-14T04:53:32;5.40;;;3.90;;
49310;SDS011;35177;45.900;5.946;2022-09-14T04:56:00;5.43;;;3.90;;
49310;SDS011;35177;45.900;5.946;2022-09-14T04:58:29;9.50;;;4.47;;
49310;SDS011;35177;45.900;5.946;2022-09-14T05:01:02;7.18;;;3.67;;
49310;SDS011;35177;45.900;5.946;2022-09-14T05:03:33;9.02;;;3.63;;
49310;SDS011;35177;45.900;5.946;2022-09-14T05:06:03;5.80;;;3.20;;
49310;SDS011;35177;45.900;5.946;2022-09-14T05:08:30;8.80;;;3.42;;
49310;SDS011;35177;45.900;5.946;2022-09-14T05:10:57;5.43;;;4.18;;
49310;SDS011;35177;45.900;5.946;2022-09-14T05:13:22;8.00;;;4.57;;
49310;SDS011;35177;45.900;5.946;2022-09-14T05:15:49;8.60;;;4.88;;
49310;SDS011;35177;45.900;5.946;2022-09-14T05:18:15;8.30;;;4.80;;
49310;SDS011;35177;45.900;5.946;2022-09-14T05:20:41;6.22;;;4.85;;
49310;SDS011;35177;45.900;5.946;2022-09-14T05:23:07;11.65;;;5.25;;
49310;SDS011;35177;45.900;5.946;2022-09-14T05:25:33;9.95;;;5.00;;
49310;SDS011;35177;45.900;5.946;2022-09-14T05:27:58;10.43;;;5.32;;
49310;SDS011;35177;45.900;5.946;2022-09-14T05:30:24;4.97;;;4.28;;
49310;SDS011;35177;45.900;5.946;2022-09-14T05:32:49;7.78;;;4.05;;
49310;SDS011;35177;45.900;5.946;2022-09-14T05:35:15;5.85;;;4.07;;
49310;SDS011;35177;45.900;5.946;2022-09-14T05:37:40;7.93;;;4.18;;
49310;SDS011;35177;45.900;5.946;2022-09-14T05:40:06;7.47;;;4.72;;
49310;SDS011;35177;45.900;5.946;2022-09-14T05:42:33;7.00;;;4.60;;
49310;SDS011;35177;45.900;5.946;2022-09-14T05:44:58;10.93;;;5.20;;
49310;SDS011;35177;45.900;5.946;2022-09-14T05:47:24;11.15;;;4.93;;
49310;SDS011;35177;45.900;5.946;2022-09-14T05:49:52;5.55;;;4.70;;
49310;SDS011;35177;45.900;5.946;2022-09-14T05:52:18;6.38;;;4.30;;
49310;SDS011;35177;45.900;5.946;2022-09-14T05:54:45;9.25;;;4.75;;
49310;SDS011;35177;45.900;5.946;2022-09-14T05:57:11;5.85;;;4.60;;
49310;SDS011;35177;45.900;5.946;2022-09-14T05:59:36;12.77;;;5.85;;
49310;SDS011;35177;45.900;5.946;2022-09-14T06:02:02;8.60;;;5.20;;
49310;SDS011;35177;45.900;5.946;2022-09-14T06:04:28;10.18;;;5.45;;
49310;SDS011;35177;45.900;5.946;2022-09-14T06:06:53;16.27;;;5.82;;
49310;SDS011;35177;45.900;5.946;2022-09-14T06:09:18;10.27;;;5.63;;
49310;SDS011;35177;45.900;5.946;2022-09-14T06:11:44;10.02;;;5.15;;
49310;SDS011;35177;45.900;5.946;2022-09-14T06:14:10;8.23;;;5.28;;
49310;SDS011;35177;45.900;5.946;2022-09-14T06:16:35;10.13;;;5.05;;
49310;SDS011;35177;45.900;5.946;2022-09-14T06:19:01;8.30;;;5.03;;
49310;SDS011;35177;45.900;5.946;2022-09-14T06:21:28;6.95;;;5.22;;
49310;SDS011;35177;45.900;5.946;2022-09-14T06:23:55;8.10;;;4.45;;
49310;SDS011;35177;45.900;5.946;2022-09-14T06:26:21;10.55;;;4.18;;
49310;SDS011;35177;45.900;5.946;2022-09-14T06:28:46;7.18;;;4.30;;
49310;SDS011;35177;45.900;5.946;2022-09-14T06:31:13;10.57;;;4.28;;
49310;SDS011;35177;45.900;5.946;2022-09-14T06:33:46;4.95;;;3.78;;
49310;SDS011;35177;45.900;5.946;2022-09-14T06:36:13;14.77;;;4.40;;
49310;SDS011;35177;45.900;5.946;2022-09-14T06:38:40;6.68;;;4.20;;
49310;SDS011;35177;45.900;5.946;2022-09-14T06:41:07;6.47;;;4.10;;
49310;SDS011;35177;45.900;5.946;2022-09-14T06:43:34;7.75;;;3.80;;
49310;SDS011;35177;45.900;5.946;2022-09-14T06:48:37;14.00;;;3.88;;
49310;SDS011;35177;45.900;5.946;2022-09-14T06:53:38;9.93;;;3.55;;
49310;SDS011;35177;45.900;5.946;2022-09-14T06:56:03;8.35;;;4.38;;
49310;SDS011;35177;45.900;5.946;2022-09-14T06:58:29;7.53;;;4.15;;
49310;SDS011;35177;45.900;5.946;2022-09-14T07:00:59;8.85;;;4.07;;
49310;SDS011;35177;45.900;5.946;2022-09-14T07:03:25;9.13;;;4.38;;
49310;SDS011;35177;45.900;5.946;2022-09-14T07:05:51;9.52;;;3.80;;
49310;SDS011;35177;45.900;5.946;2022-09-14T07:08:16;10.02;;;4.57;;
49310;SDS011;35177;45.900;5.946;2022-09-14T07:10:42;13.98;;;3.80;;
49310;SDS011;35177;45.900;5.946;2022-09-14T07:13:08;7.95;;;3.50;;
49310;SDS011;35177;45.900;5.946;2022-09-14T07:15:33;6.95;;;2.95;;
49310;SDS011;35177;45.900;5.946;2022-09-14T07:17:59;12.15;;;3.60;;
49310;SDS011;35177;45.900;5.946;2022-09-14T07:20:24;7.10;;;3.10;;
49310;SDS011;35177;45.900;5.946;2022-09-14T07:22:50;6.13;;;3.05;;
49310;SDS011;35177;45.900;5.946;2022-09-14T07:25:15;10.40;;;3.30;;
49310;SDS011;35177;45.900;5.946;2022-09-14T07:27:41;10.88;;;3.50;;
49310;SDS011;35177;45.900;5.946;2022-09-14T07:30:06;9.43;;;3.15;;
49310;SDS011;35177;45.900;5.946;2022-09-14T07:32:32;6.57;;;3.03;;
49310;SDS011;35177;45.900;5.946;2022-09-14T07:34:58;9.45;;;3.38;;
49310;SDS011;35177;45.900;5.946;2022-09-14T07:37:24;8.02;;;3.60;;
49310;SDS011;35177;45.900;5.946;2022-09-14T07:39:49;9.68;;;3.80;;
49310;SDS011;35177;45.900;5.946;2022-09-14T07:42:15;10.38;;;4.13;;
49310;SDS011;35177;45.900;5.946;2022-09-14T07:44:40;11.77;;;4.07;;
49310;SDS011;35177;45.900;5.946;2022-09-14T07:47:05;9.18;;;3.53;;
49310;SDS011;35177;45.900;5.946;2022-09-14T07:49:31;6.63;;;3.55;;
49310;SDS011;35177;45.900;5.946;2022-09-14T07:51:56;6.15;;;3.28;;
49310;SDS011;35177;45.900;5.946;2022-09-14T07:54:22;8.85;;;3.45;;
49310;SDS011;35177;45.900;5.946;2022-09-14T07:56:47;6.35;;;3.00;;
49310;SDS011;35177;45.900;5.946;2022-09-14T07:59:14;8.68;;;2.90;;
49310;SDS011;35177;45.900;5.946;2022-09-14T08:01:40;11.27;;;3.20;;
49310;SDS011;35177;45.900;5.946;2022-09-14T08:04:06;6.68;;;3.45;;
49310;SDS011;35177;45.900;5.946;2022-09-14T08:06:33;8.18;;;2.90;;
49310;SDS011;35177;45.900;5.946;2022-09-14T08:09:03;7.10;;;2.67;;
49310;SDS011;35177;45.900;5.946;2022-09-14T08:11:30;6.60;;;2.60;;
49310;SDS011;35177;45.900;5.946;2022-09-14T08:14:00;6.30;;;2.97;;
49310;SDS011;35177;45.900;5.946;2022-09-14T08:16:29;6.25;;;3.05;;
49310;SDS011;35177;45.900;5.946;2022-09-14T08:18:56;7.60;;;2.97;;
49310;SDS011;35177;45.900;5.946;2022-09-14T08:21:26;7.82;;;3.17;;
49310;SDS011;35177;45.900;5.946;2022-09-14T08:23:54;7.35;;;3.10;;
49310;SDS011;35177;45.900;5.946;2022-09-14T08:26:22;7.00;;;3.13;;
49310;SDS011;35177;45.900;5.946;2022-09-14T08:28:49;10.63;;;4.15;;
49310;SDS011;35177;45.900;5.946;2022-09-14T08:31:16;8.40;;;3.70;;
49310;SDS011;35177;45.900;5.946;2022-09-14T08:33:45;8.95;;;4.32;;
49310;SDS011;35177;45.900;5.946;2022-09-14T08:36:16;10.52;;;4.18;;
49310;SDS011;35177;45.900;5.946;2022-09-14T08:38:43;7.68;;;4.05;;
49310;SDS011;35177;45.900;5.946;2022-09-14T08:41:11;8.45;;;4.35;;
49310;SDS011;35177;45.900;5.946;2022-09-14T08:46:29;13.98;;;5.07;;
49310;SDS011;35177;45.900;5.946;2022-09-14T08:48:59;4.93;;;3.55;;
49310;SDS011;35177;45.900;5.946;2022-09-14T08:51:26;11.30;;;3.95;;
49310;SDS011;35177;45.900;5.946;2022-09-14T08:53:53;7.90;;;3.67;;
49310;SDS011;35177;45.900;5.946;2022-09-14T08:56:22;9.20;;;3.65;;
49310;SDS011;35177;45.900;5.946;2022-09-14T08:59:37;6.72;;;3.33;;
49310;SDS011;35177;45.900;5.946;2022-09-14T09:02:03;7.97;;;3.40;;
49310;SDS011;35177;45.900;5.946;2022-09-14T09:07:35;8.77;;;3.70;;
49310;SDS011;35177;45.900;5.946;2022-09-14T09:10:09;10.55;;;3.85;;
49310;SDS011;35177;45.900;5.946;2022-09-14T09:12:40;8.27;;;4.20;;
49310;SDS011;35177;45.900;5.946;2022-09-14T09:18:31;12.77;;;4.57;;
49310;SDS011;35177;45.900;5.946;2022-09-14T09:21:09;12.15;;;4.20;;
49310;SDS011;35177;45.900;5.946;2022-09-14T09:23:39;13.40;;;3.85;;
49310;SDS011;35177;45.900;5.946;2022-09-14T09:28:31;6.35;;;3.35;;
49310;SDS011;35177;45.900;5.946;2022-09-14T09:31:02;7.38;;;3.15;;
49310;SDS011;35177;45.900;5.946;2022-09-14T09:33:30;9.57;;;3.58;;
49310;SDS011;35177;45.900;5.946;2022-09-14T09:35:56;8.68;;;3.45;;
49310;SDS011;35177;45.900;5.946;2022-09-14T09:38:23;4.97;;;3.03;;
49310;SDS011;35177;45.900;5.946;2022-09-14T09:40:52;7.45;;;3.35;;
49310;SDS011;35177;45.900;5.946;2022-09-14T09:43:20;7.13;;;3.45;;
49310;SDS011;35177;45.900;5.946;2022-09-14T09:48:18;5.75;;;3.28;;
49310;SDS011;35177;45.900;5.946;2022-09-14T09:50:54;11.43;;;4.30;;
49310;SDS011;35177;45.900;5.946;2022-09-14T09:53:27;9.95;;;4.00;;
49310;SDS011;35177;45.900;5.946;2022-09-14T09:55:53;9.80;;;3.85;;
49310;SDS011;35177;45.900;5.946;2022-09-14T09:58:20;7.95;;;3.92;;
49310;SDS011;35177;45.900;5.946;2022-09-14T10:01:00;11.07;;;3.83;;
49310;SDS011;35177;45.900;5.946;2022-09-14T10:03:41;4.90;;;2.95;;
49310;SDS011;35177;45.900;5.946;2022-09-14T10:06:10;7.45;;;2.67;;
49310;SDS011;35177;45.900;5.946;2022-09-14T10:08:41;5.70;;;2.35;;
49310;SDS011;35177;45.900;5.946;2022-09-14T10:13:54;5.75;;;3.08;;
49310;SDS011;35177;45.900;5.946;2022-09-14T10:16:20;7.03;;;3.20;;
49310;SDS011;35177;45.900;5.946;2022-09-14T10:18:47;6.95;;;2.80;;
49310;SDS011;35177;45.900;5.946;2022-09-14T10:21:16;6.13;;;2.50;;
49310;SDS011;35177;45.900;5.946;2022-09-14T10:23:43;12.60;;;3.22;;
49310;SDS011;35177;45.900;5.946;2022-09-14T10:28:48;9.25;;;3.00;;
49310;SDS011;35177;45.900;5.946;2022-09-14T10:33:43;5.43;;;2.30;;
49310;SDS011;35177;45.900;5.946;2022-09-14T10:38:56;8.50;;;2.72;;
49310;SDS011;35177;45.900;5.946;2022-09-14T10:41:32;10.35;;;3.30;;
49310;SDS011;35177;45.900;5.946;2022-09-14T10:47:01;6.85;;;2.90;;
49310;SDS011;35177;45.900;5.946;2022-09-14T11:06:52;6.70;;;2.22;;
49310;SDS011;35177;45.900;5.946;2022-09-14T11:12:25;8.65;;;2.88;;
49310;SDS011;35177;45.900;5.946;2022-09-14T11:26:01;9.10;;;2.75;;
49310;SDS011;35177;45.900;5.946;2022-09-14T11:28:45;9.45;;;2.17;;
49310;SDS011;35177;45.900;5.946;2022-09-14T11:36:29;5.78;;;1.77;;
49310;SDS011;35177;45.900;5.946;2022-09-14T11:39:05;6.82;;;2.05;;
49310;SDS011;35177;45.900;5.946;2022-09-14T11:41:46;7.30;;;2.22;;
49310;SDS011;35177;45.900;5.946;2022-09-14T11:44:36;5.80;;;1.83;;
49310;SDS011;35177;45.900;5.946;2022-09-14T11:47:16;6.25;;;2.05;;
49310;SDS011;35177;45.900;5.946;2022-09-14T11:52:27;9.35;;;2.25;;
49310;SDS011;35177;45.900;5.946;2022-09-14T11:54:54;7.00;;;2.00;;
49310;SDS011;35177;45.900;5.946;2022-09-14T11:57:25;5.47;;;2.03;;
49310;SDS011;35177;45.900;5.946;2022-09-14T12:00:00;8.23;;;1.80;;
49310;SDS011;35177;45.900;5.946;2022-09-14T12:03:43;7.75;;;2.35;;
49310;SDS011;35177;45.900;5.946;2022-09-14T12:05:41;5.25;;;2.05;;
49310;SDS011;35177;45.900;5.946;2022-09-14T12:08:25;4.53;;;1.73;;
49310;SDS011;35177;45.900;5.946;2022-09-14T12:10:58;5.18;;;1.95;;
49310;SDS011;35177;45.900;5.946;2022-09-14T12:13:24;6.97;;;2.30;;
49310;SDS011;35177;45.900;5.946;2022-09-14T12:15:50;7.50;;;2.22;;
49310;SDS011;35177;45.900;5.946;2022-09-14T12:18:25;9.18;;;2.17;;
49310;SDS011;35177;45.900;5.946;2022-09-14T12:35:58;7.47;;;1.90;;
49310;SDS011;35177;45.900;5.946;2022-09-14T12:53:47;4.47;;;1.60;;
49310;SDS011;35177;45.900;5.946;2022-09-14T13:04:22;7.22;;;2.03;;
49310;SDS011;35177;45.900;5.946;2022-09-14T13:06:49;6.10;;;2.00;;
49310;SDS011;35177;45.900;5.946;2022-09-14T13:09:18;6.63;;;1.70;;
49310;SDS011;35177;45.900;5.946;2022-09-14T13:11:45;6.68;;;2.05;;
49310;SDS011;35177;45.900;5.946;2022-09-14T13:14:17;5.93;;;2.53;;
49310;SDS011;35177;45.900;5.946;2022-09-14T13:16:43;8.55;;;1.92;;
49310;SDS011;35177;45.900;5.946;2022-09-14T13:19:18;8.68;;;1.92;;
49310;SDS011;35177;45.900;5.946;2022-09-14T13:22:02;4.15;;;1.70;;
49310;SDS011;35177;45.900;5.946;2022-09-14T13:24:45;4.25;;;2.10;;
49310;SDS011;35177;45.900;5.946;2022-09-14T13:29:57;4.95;;;2.00;;
49310;SDS011;35177;45.900;5.946;2022-09-14T13:32:48;3.40;;;1.70;;
49310;SDS011;35177;45.900;5.946;2022-09-14T13:35:37;4.30;;;2.00;;
49310;SDS011;35177;45.900;5.946;2022-09-14T13:38:23;8.23;;;1.90;;
49310;SDS011;35177;45.900;5.946;2022-09-14T13:40:51;5.93;;;1.92;;
49310;SDS011;35177;45.900;5.946;2022-09-14T13:43:19;5.57;;;1.75;;
49310;SDS011;35177;45.900;5.946;2022-09-14T13:45:49;5.85;;;2.28;;
49310;SDS011;35177;45.900;5.946;2022-09-14T13:48:16;5.03;;;1.90;;
49310;SDS011;35177;45.900;5.946;2022-09-14T13:50:45;7.25;;;1.85;;
49310;SDS011;35177;45.900;5.946;2022-09-14T13:56:18;5.15;;;1.80;;
49310;SDS011;35177;45.900;5.946;2022-09-14T13:58:48;3.97;;;1.63;;
49310;SDS011;35177;45.900;5.946;2022-09-14T14:01:40;5.53;;;1.92;;
49310;SDS011;35177;45.900;5.946;2022-09-14T14:06:58;5.15;;;1.75;;
49310;SDS011;35177;45.900;5.946;2022-09-14T14:09:41;5.35;;;1.70;;
49310;SDS011;35177;45.900;5.946;2022-09-14T14:12:19;5.18;;;2.17;;
49310;SDS011;35177;45.900;5.946;2022-09-14T14:14:57;6.22;;;2.10;;
49310;SDS011;35177;45.900;5.946;2022-09-14T14:19:54;4.20;;;1.90;;
49310;SDS011;35177;45.900;5.946;2022-09-14T14:22:31;7.88;;;2.17;;
49310;SDS011;35177;45.900;5.946;2022-09-14T14:24:59;6.47;;;2.10;;
49310;SDS011;35177;45.900;5.946;2022-09-14T14:27:42;6.60;;;1.90;;
49310;SDS011;35177;45.900;5.946;2022-09-14T14:32:40;5.57;;;2.17;;
49310;SDS011;35177;45.900;5.946;2022-09-14T14:35:15;4.43;;;2.03;;
49310;SDS011;35177;45.900;5.946;2022-09-14T14:37:44;7.18;;;2.28;;
49310;SDS011;35177;45.900;5.946;2022-09-14T14:40:13;4.60;;;1.80;;
49310;SDS011;35177;45.900;5.946;2022-09-14T14:42:39;3.25;;;1.95;;
49310;SDS011;35177;45.900;5.946;2022-09-14T14:45:05;3.33;;;1.98;;
49310;SDS011;35177;45.900;5.946;2022-09-14T14:47:38;7.63;;;2.20;;
49310;SDS011;35177;45.900;5.946;2022-09-14T14:50:05;3.83;;;1.77;;
49310;SDS011;35177;45.900;5.946;2022-09-14T14:55:02;8.80;;;1.85;;
49310;SDS011;35177;45.900;5.946;2022-09-14T14:57:29;7.97;;;1.85;;
49310;SDS011;35177;45.900;5.946;2022-09-14T14:59:54;4.15;;;1.83;;
49310;SDS011;35177;45.900;5.946;2022-09-14T15:02:20;4.55;;;1.83;;
49310;SDS011;35177;45.900;5.946;2022-09-14T15:04:45;4.68;;;1.85;;
49310;SDS011;35177;45.900;5.946;2022-09-14T15:07:12;3.33;;;1.83;;
49310;SDS011;35177;45.900;5.946;2022-09-14T15:09:37;8.05;;;2.30;;
49310;SDS011;35177;45.900;5.946;2022-09-14T15:12:03;5.70;;;1.70;;
49310;SDS011;35177;45.900;5.946;2022-09-14T15:14:29;6.05;;;1.90;;
49310;SDS011;35177;45.900;5.946;2022-09-14T15:16:54;5.93;;;1.98;;
49310;SDS011;35177;45.900;5.946;2022-09-14T15:19:24;6.20;;;1.90;;
49310;SDS011;35177;45.900;5.946;2022-09-14T15:21:50;6.63;;;2.20;;
49310;SDS011;35177;45.900;5.946;2022-09-14T15:24:15;2.50;;;1.60;;
49310;SDS011;35177;45.900;5.946;2022-09-14T15:26:41;5.55;;;2.08;;
49310;SDS011;35177;45.900;5.946;2022-09-14T15:29:06;11.20;;;2.38;;
49310;SDS011;35177;45.900;5.946;2022-09-14T15:31:33;5.70;;;2.22;;
49310;SDS011;35177;45.900;5.946;2022-09-14T15:33:58;7.57;;;1.83;;
49310;SDS011;35177;45.900;5.946;2022-09-14T15:36:34;7.90;;;2.30;;
49310;SDS011;35177;45.900;5.946;2022-09-14T15:39:00;5.32;;;1.90;;
49310;SDS011;35177;45.900;5.946;2022-09-14T15:41:25;6.68;;;2.17;;
49310;SDS011;35177;45.900;5.946;2022-09-14T15:43:51;9.25;;;1.95;;
49310;SDS011;35177;45.900;5.946;2022-09-14T15:46:16;8.52;;;1.98;;
49310;SDS011;35177;45.900;5.946;2022-09-14T15:48:42;6.80;;;1.92;;
49310;SDS011;35177;45.900;5.946;2022-09-14T15:51:10;8.45;;;2.15;;
49310;SDS011;35177;45.900;5.946;2022-09-14T15:53:36;5.22;;;2.22;;
49310;SDS011;35177;45.900;5.946;2022-09-14T15:56:12;8.20;;;2.33;;
49310;SDS011;35177;45.900;5.946;2022-09-14T15:58:38;5.55;;;2.08;;
49310;SDS011;35177;45.900;5.946;2022-09-14T16:01:11;5.70;;;2.22;;
49310;SDS011;35177;45.900;5.946;2022-09-14T16:03:38;4.28;;;1.83;;
49310;SDS011;35177;45.900;5.946;2022-09-14T16:06:09;6.05;;;2.03;;
49310;SDS011;35177;45.900;5.946;2022-09-14T16:08:38;6.05;;;2.35;;
49310;SDS011;35177;45.900;5.946;2022-09-14T16:11:04;8.13;;;1.90;;
49310;SDS011;35177;45.900;5.946;2022-09-14T16:13:32;5.47;;;2.13;;
49310;SDS011;35177;45.900;5.946;2022-09-14T16:16:17;11.52;;;2.28;;
49310;SDS011;35177;45.900;5.946;2022-09-14T16:18:43;7.85;;;2.05;;
49310;SDS011;35177;45.900;5.946;2022-09-14T16:21:14;4.00;;;2.13;;
49310;SDS011;35177;45.900;5.946;2022-09-14T16:23:43;6.90;;;2.20;;
49310;SDS011;35177;45.900;5.946;2022-09-14T16:26:12;6.15;;;2.33;;
49310;SDS011;35177;45.900;5.946;2022-09-14T16:28:40;10.50;;;2.17;;
49310;SDS011;35177;45.900;5.946;2022-09-14T16:31:10;7.70;;;2.17;;
49310;SDS011;35177;45.900;5.946;2022-09-14T16:33:38;12.77;;;1.80;;
49310;SDS011;35177;45.900;5.946;2022-09-14T16:36:06;8.13;;;2.40;;
49310;SDS011;35177;45.900;5.946;2022-09-14T16:38:34;10.23;;;2.40;;
49310;SDS011;35177;45.900;5.946;2022-09-14T16:41:00;7.53;;;2.13;;
49310;SDS011;35177;45.900;5.946;2022-09-14T16:43:26;11.65;;;2.33;;
49310;SDS011;35177;45.900;5.946;2022-09-14T16:46:00;8.13;;;2.25;;
49310;SDS011;35177;45.900;5.946;2022-09-14T16:48:29;7.88;;;2.40;;
49310;SDS011;35177;45.900;5.946;2022-09-14T16:50:56;5.35;;;2.53;;
49310;SDS011;35177;45.900;5.946;2022-09-14T16:53:22;5.97;;;2.58;;
49310;SDS011;35177;45.900;5.946;2022-09-14T16:55:49;4.85;;;1.80;;
49310;SDS011;35177;45.900;5.946;2022-09-14T16:58:14;5.78;;;2.10;;
49310;SDS011;35177;45.900;5.946;2022-09-14T17:00:40;9.15;;;2.30;;
49310;SDS011;35177;45.900;5.946;2022-09-14T17:03:06;8.27;;;2.10;;
49310;SDS011;35177;45.900;5.946;2022-09-14T17:05:31;7.13;;;2.33;;
49310;SDS011;35177;45.900;5.946;2022-09-14T17:07:56;7.65;;;2.40;;
49310;SDS011;35177;45.900;5.946;2022-09-14T17:10:22;5.95;;;1.88;;
49310;SDS011;35177;45.900;5.946;2022-09-14T17:12:47;9.65;;;2.20;;
49310;SDS011;35177;45.900;5.946;2022-09-14T17:15:13;6.18;;;2.58;;
49310;SDS011;35177;45.900;5.946;2022-09-14T17:17:39;9.32;;;2.35;;
49310;SDS011;35177;45.900;5.946;2022-09-14T17:20:05;7.47;;;2.20;;
49310;SDS011;35177;45.900;5.946;2022-09-14T17:22:31;6.07;;;2.25;;
49310;SDS011;35177;45.900;5.946;2022-09-14T17:24:57;6.03;;;1.80;;
49310;SDS011;35177;45.900;5.946;2022-09-14T17:27:23;11.02;;;2.28;;
49310;SDS011;35177;45.900;5.946;2022-09-14T17:29:49;9.85;;;2.70;;
49310;SDS011;35177;45.900;5.946;2022-09-14T17:32:14;6.30;;;2.42;;
49310;SDS011;35177;45.900;5.946;2022-09-14T17:34:40;5.40;;;2.70;;
49310;SDS011;35177;45.900;5.946;2022-09-14T17:37:07;4.97;;;2.47;;